Terminal Aerodrome Forecast
Issued by NWS Paducah, KY

Home | Current Version | Previous Version | Graphics & Text | Print | Product List | Glossary On
Versions: 1 2 3 4 5 6 7 8 9 10 11 12 13 14
000
FTUS43 KPAH 240700 AAA
TAFEVV
TAF AMD
KEVV 240723Z 2407/2506 00000KT P6SM BKN045
     FM241000 00000KT 6SM BR BKN040 BKN100
     FM241400 VRB03KT P6SM BKN040
     FM250100 VRB02KT P6SM SCT250=

USA.gov is the U.S. government's official web portal to all federal, state and local government web resources and services.